Time;durP1;ratioP1;P1;durP2;ratioP2;P2;SDS_P1;SDS_P2;PMS_P1;PMS_P2;Temp;Humidity;BMP_temperature;BMP_pressure;BME280_temperature;BME280_humidity;BME280_pressure;Samples;Min_cycle;Max_cycle;Signal;HPM_P1;HPM_P2
2021/12/17 00:05:09;;;;;;;;;;;21.30;45.00;;;;;;6247233;28;20031;-38
2021/12/17 00:08:11;;;;;;;;;;;21.60;45.10;;;;;;6247159;28;20038;-38
2021/12/17 00:11:13;;;;;;;;;;;21.60;44.50;;;;;;6243812;28;20027;-38
2021/12/17 00:14:24;;;;;;;;;;;21.50;45.10;;;;;;6228340;28;19959;-38
2021/12/17 00:17:31;;;;;;;;;;;21.70;45.30;;;;;;6243693;28;19971;-38
2021/12/17 00:20:57;;;;;;;;;;;21.70;45.30;;;;;;6223392;28;20802;-38
2021/12/17 00:43:53;;;;;;;;;;;21.50;45.20;;;;;;6243852;28;20031;-37
2021/12/17 00:50:34;;;;;;;;;;;21.90;45.50;;;;;;6245121;28;20662;-38
2021/12/17 00:53:35;;;;;;;;;;;21.60;45.40;;;;;;6257411;28;20085;-38
2021/12/17 00:56:37;;;;;;;;;;;21.10;45.20;;;;;;6241785;28;19928;-38
2021/12/17 00:59:39;;;;;;;;;;;21.30;45.20;;;;;;6244122;28;20857;-37
2021/12/17 01:02:40;;;;;;;;;;;21.20;45.20;;;;;;6241949;28;19928;-39
2021/12/17 01:05:43;;;;;;;;;;;21.30;45.40;;;;;;6246603;28;19975;-38
2021/12/17 01:08:45;;;;;;;;;;;21.20;45.30;;;;;;6243412;28;19967;-38
2021/12/17 01:11:50;;;;;;;;;;;21.00;45.10;;;;;;6247862;28;19932;-38
2021/12/17 01:15:01;;;;;;;;;;;21.20;45.30;;;;;;6247752;28;19928;-37
2021/12/17 01:18:33;;;;;;;;;;;21.50;45.30;;;;;;6248357;28;20031;-38
2021/12/17 01:21:56;;;;;;;;;;;21.90;45.60;;;;;;6232444;28;19929;-37
2021/12/17 01:25:08;;;;;;;;;;;21.00;45.20;;;;;;6225833;28;19928;-37
2021/12/17 01:42:04;;;;;;;;;;;21.00;45.90;;;;;;6250885;28;20031;-38
2021/12/17 01:45:07;;;;;;;;;;;21.20;45.30;;;;;;6242904;28;20055;-38
2021/12/17 01:48:11;;;;;;;;;;;21.90;45.70;;;;;;6249241;28;19929;-38
2021/12/17 02:01:07;;;;;;;;;;;21.00;45.10;;;;;;6247716;28;19994;-39
2021/12/17 02:04:09;;;;;;;;;;;21.20;45.30;;;;;;6239299;28;19924;-38
2021/12/17 02:07:11;;;;;;;;;;;21.20;45.10;;;;;;6240418;28;19928;-37
2021/12/17 02:20:13;;;;;;;;;;;21.40;45.50;;;;;;6246450;28;20703;-38
2021/12/17 02:28:42;;;;;;;;;;;21.40;45.40;;;;;;6228924;28;19936;-38
2021/12/17 02:30:23;;;;;;;;;;;21.40;45.50;;;;;;6235616;28;19936;-38
2021/12/17 02:33:25;;;;;;;;;;;21.00;45.20;;;;;;6242478;28;19928;-37
2021/12/17 02:36:31;;;;;;;;;;;21.80;45.70;;;;;;6243972;28;19965;-37
2021/12/17 02:39:54;;;;;;;;;;;20.90;45.20;;;;;;6248488;28;20862;-37
2021/12/17 02:46:09;;;;;;;;;;;20.90;45.20;;;;;;6249934;28;20006;-39
2021/12/17 02:49:10;;;;;;;;;;;21.10;45.50;;;;;;6254525;28;19999;-39
2021/12/17 02:52:13;;;;;;;;;;;20.90;45.30;;;;;;6251082;28;19930;-39
2021/12/17 02:55:15;;;;;;;;;;;20.70;45.30;;;;;;6230254;28;19969;-39
2021/12/17 02:58:16;;;;;;;;;;;21.70;45.60;;;;;;6248979;28;20014;-39
2021/12/17 03:01:18;;;;;;;;;;;21.30;45.40;;;;;;6253906;28;20741;-38
2021/12/17 03:04:20;;;;;;;;;;;20.90;45.40;;;;;;6248327;28;19935;-43
2021/12/17 03:07:22;;;;;;;;;;;21.10;45.40;;;;;;6251385;28;19929;-41
2021/12/17 03:10:23;;;;;;;;;;;20.90;45.40;;;;;;6249227;28;19935;-40
2021/12/17 03:13:26;;;;;;;;;;;21.00;45.40;;;;;;6244725;28;20005;-42
2021/12/17 03:16:32;;;;;;;;;;;21.40;45.00;;;;;;6245895;28;19928;-38
2021/12/17 03:26:07;;;;;;;;;;;20.80;45.20;;;;;;6235650;28;19925;-39
2021/12/17 03:29:09;;;;;;;;;;;20.70;45.10;;;;;;6234250;28;19932;-39
2021/12/17 03:32:16;;;;;;;;;;;21.00;45.30;;;;;;6251575;28;19935;-39
2021/12/17 03:35:18;;;;;;;;;;;20.90;45.40;;;;;;6250353;28;19924;-39
2021/12/17 03:38:20;;;;;;;;;;;20.60;45.20;;;;;;6251331;28;21082;-38
2021/12/17 03:41:24;;;;;;;;;;;20.80;45.30;;;;;;6242188;28;19935;-38
2021/12/17 03:44:33;;;;;;;;;;;20.80;45.40;;;;;;6238017;28;19935;-38
2021/12/17 03:47:55;;;;;;;;;;;21.30;45.50;;;;;;6227897;28;19967;-39
2021/12/17 03:50:58;;;;;;;;;;;21.20;45.50;;;;;;6239200;28;19973;-38
2021/12/17 03:54:00;;;;;;;;;;;20.90;45.40;;;;;;6241546;28;19946;-38
2021/12/17 03:57:09;;;;;;;;;;;20.70;45.20;;;;;;6238063;28;19932;-40
2021/12/17 04:00:14;;;;;;;;;;;21.10;45.40;;;;;;6238940;28;19936;-41
2021/12/17 04:03:19;;;;;;;;;;;20.70;45.10;;;;;;6242485;28;19929;-40
2021/12/17 04:06:27;;;;;;;;;;;20.60;45.20;;;;;;6237461;28;19928;-41
2021/12/17 04:09:49;;;;;;;;;;;20.80;45.50;;;;;;6234136;28;20105;-40
2021/12/17 04:12:56;;;;;;;;;;;20.60;45.30;;;;;;6242502;28;19939;-42
2021/12/17 04:16:01;;;;;;;;;;;20.70;45.40;;;;;;6244689;28;21316;-41
2021/12/17 04:19:03;;;;;;;;;;;20.80;45.30;;;;;;6227759;28;19928;-42
2021/12/17 04:22:07;;;;;;;;;;;20.70;45.40;;;;;;6207661;28;20821;-38
2021/12/17 04:25:09;;;;;;;;;;;21.60;45.90;;;;;;6224596;28;26917;-40
2021/12/17 04:28:12;;;;;;;;;;;20.60;45.50;;;;;;6233549;28;28028;-39
2021/12/17 04:31:14;;;;;;;;;;;20.70;45.50;;;;;;6239128;28;19924;-39
2021/12/17 04:34:17;;;;;;;;;;;21.10;45.50;;;;;;6222402;28;20207;-38
2021/12/17 04:37:19;;;;;;;;;;;20.80;45.50;;;;;;6249623;28;19935;-39
2021/12/17 04:40:28;;;;;;;;;;;20.80;45.40;;;;;;6251101;28;20005;-39
2021/12/17 04:43:39;;;;;;;;;;;20.80;45.40;;;;;;6246998;28;23936;-39
2021/12/17 04:46:46;;;;;;;;;;;21.20;45.70;;;;;;6240764;28;20186;-39
2021/12/17 04:59:39;;;;;;;;;;;21.00;45.40;;;;;;6242583;28;23639;-39
2021/12/17 05:02:43;;;;;;;;;;;20.90;45.60;;;;;;6244892;28;19928;-39
2021/12/17 05:05:45;;;;;;;;;;;20.80;45.50;;;;;;6247320;28;20014;-41
2021/12/17 05:08:58;;;;;;;;;;;20.60;45.30;;;;;;6237241;28;19935;-40
2021/12/17 05:18:45;;;;;;;;;;;21.00;45.70;;;;;;6230519;28;20406;-39
2021/12/17 05:21:47;;;;;;;;;;;21.00;45.60;;;;;;6222403;28;20871;-39
2021/12/17 05:24:48;;;;;;;;;;;21.10;45.70;;;;;;6230647;28;20486;-40
2021/12/17 05:27:50;;;;;;;;;;;21.10;45.80;;;;;;6243067;28;19929;-40
2021/12/17 05:30:54;;;;;;;;;;;20.60;45.50;;;;;;6247934;28;19928;-40
2021/12/17 05:33:56;;;;;;;;;;;20.60;45.50;;;;;;6243096;28;28206;-41
2021/12/17 05:37:03;;;;;;;;;;;20.90;45.70;;;;;;6246822;28;20681;-40
2021/12/17 05:40:10;;;;;;;;;;;20.70;45.50;;;;;;6240628;28;20039;-41
2021/12/17 05:43:14;;;;;;;;;;;20.70;45.40;;;;;;6246010;28;19929;-40
2021/12/17 05:46:23;;;;;;;;;;;20.60;45.60;;;;;;6246176;28;19920;-39
2021/12/17 05:49:26;;;;;;;;;;;20.70;45.70;;;;;;6243759;28;19928;-41
2021/12/17 05:52:29;;;;;;;;;;;20.70;45.40;;;;;;6241046;28;19928;-41
2021/12/17 05:55:32;;;;;;;;;;;20.60;45.60;;;;;;6238096;28;20180;-39
2021/12/17 05:58:34;;;;;;;;;;;21.60;46.00;;;;;;6236739;28;20880;-40
2021/12/17 06:01:35;;;;;;;;;;;20.60;45.60;;;;;;6233987;28;20039;-40
2021/12/17 06:04:37;;;;;;;;;;;21.10;45.10;;;;;;6237147;28;19924;-40
2021/12/17 06:07:40;;;;;;;;;;;20.90;46.00;;;;;;6225019;28;19932;-40
2021/12/17 06:10:42;;;;;;;;;;;20.60;45.70;;;;;;6231989;28;19925;-41
2021/12/17 06:13:45;;;;;;;;;;;20.70;45.60;;;;;;6233303;28;19928;-40
2021/12/17 06:16:48;;;;;;;;;;;20.50;45.50;;;;;;6236946;28;19994;-39
2021/12/17 06:19:58;;;;;;;;;;;20.70;45.70;;;;;;6234644;28;19929;-39
2021/12/17 06:23:00;;;;;;;;;;;20.50;45.50;;;;;;6232661;28;19928;-42
2021/12/17 06:26:02;;;;;;;;;;;20.50;45.50;;;;;;6219746;28;19924;-39
2021/12/17 06:29:04;;;;;;;;;;;21.00;45.60;;;;;;6234372;28;19920;-40
2021/12/17 06:32:07;;;;;;;;;;;20.70;45.60;;;;;;6225811;28;20703;-39
2021/12/17 06:35:09;;;;;;;;;;;20.60;45.50;;;;;;6212913;28;21630;-39
2021/12/17 06:38:11;;;;;;;;;;;20.60;46.10;;;;;;6223034;28;19932;-39
2021/12/17 06:41:14;;;;;;;;;;;20.50;45.40;;;;;;6240474;28;19932;-39
2021/12/17 06:44:21;;;;;;;;;;;20.40;45.30;;;;;;6235270;28;20399;-39
2021/12/17 06:47:28;;;;;;;;;;;20.70;45.60;;;;;;6223332;28;19940;-39
2021/12/17 07:01:12;;;;;;;;;;;21.20;45.40;;;;;;6217991;28;20731;-39
2021/12/17 07:11:35;;;;;;;;;;;20.60;44.70;;;;;;6224403;28;19931;-41
2021/12/17 07:18:02;;;;;;;;;;;21.10;45.00;;;;;;6226581;28;19928;-42
2021/12/17 07:24:48;;;;;;;;;;;21.20;44.90;;;;;;6211629;28;19974;-39
2021/12/17 07:34:44;;;;;;;;;;;21.30;44.50;;;;;;6220146;28;19928;-40
2021/12/17 07:41:10;;;;;;;;;;;20.70;44.30;;;;;;6205909;28;20989;-40
2021/12/17 07:44:13;;;;;;;;;;;20.90;44.40;;;;;;6202347;28;19928;-39
2021/12/17 07:47:28;;;;;;;;;;;21.10;44.70;;;;;;6186318;28;19935;-41
2021/12/17 07:50:51;;;;;;;;;;;20.90;44.50;;;;;;6178114;28;21060;-41
2021/12/17 07:54:12;;;;;;;;;;;21.40;44.00;;;;;;6170887;28;20007;-39
2021/12/17 07:57:14;;;;;;;;;;;20.90;44.10;;;;;;6144357;28;19928;-40
2021/12/17 08:00:16;;;;;;;;;;;20.90;44.40;;;;;;6133707;28;19994;-40
2021/12/17 08:03:17;;;;;;;;;;;20.80;44.30;;;;;;6140501;28;19958;-40
2021/12/17 08:06:32;;;;;;;;;;;21.60;44.80;;;;;;6143667;28;22206;-40
2021/12/17 08:09:46;;;;;;;;;;;21.00;44.40;;;;;;6100633;28;19928;-41
2021/12/17 08:12:47;;;;;;;;;;;21.40;44.70;;;;;;6116498;28;20944;-40
2021/12/17 08:16:04;;;;;;;;;;;21.40;44.60;;;;;;6120999;28;20058;-40
2021/12/17 08:23:09;;;;;;;;;;;21.70;44.80;;;;;;6127144;28;19932;-40
2021/12/17 08:26:03;;;;;;;;;;;21.10;44.20;;;;;;6129792;28;20025;-41
2021/12/17 08:29:26;;;;;;;;;;;21.40;44.40;;;;;;6125752;28;21346;-41
2021/12/17 08:32:30;;;;;;;;;;;21.40;44.00;;;;;;6121177;28;19972;-39
2021/12/17 08:35:38;;;;;;;;;;;21.40;44.90;;;;;;6122257;28;19929;-40
2021/12/17 08:38:52;;;;;;;;;;;21.50;44.30;;;;;;6121367;28;20008;-40
2021/12/17 08:42:03;;;;;;;;;;;21.50;44.20;;;;;;6129692;28;19936;-40
2021/12/17 08:45:08;;;;;;;;;;;21.00;44.00;;;;;;6127020;28;19929;-40
2021/12/17 08:48:29;;;;;;;;;;;21.50;45.00;;;;;;6124347;28;20067;-39
2021/12/17 08:51:51;;;;;;;;;;;21.50;44.10;;;;;;6102330;28;20017;-39
2021/12/17 08:54:54;;;;;;;;;;;21.30;44.20;;;;;;6099376;28;19945;-40
2021/12/17 08:57:55;;;;;;;;;;;21.60;44.20;;;;;;6113928;28;20002;-39
2021/12/17 09:00:56;;;;;;;;;;;21.80;44.20;;;;;;6082126;28;19928;-39
2021/12/17 09:04:01;;;;;;;;;;;21.20;43.90;;;;;;6098994;28;20121;-39
2021/12/17 09:07:10;;;;;;;;;;;21.40;44.10;;;;;;6093415;28;20861;-39
2021/12/17 09:10:18;;;;;;;;;;;21.70;43.90;;;;;;6113680;28;19998;-39
2021/12/17 09:13:21;;;;;;;;;;;21.60;43.90;;;;;;6101803;28;19960;-40
2021/12/17 09:16:23;;;;;;;;;;;21.70;43.80;;;;;;6111450;28;20059;-40
2021/12/17 09:19:26;;;;;;;;;;;21.50;43.60;;;;;;6130548;28;21737;-40
2021/12/17 09:22:32;;;;;;;;;;;21.40;43.90;;;;;;6132646;28;19928;-39
2021/12/17 09:25:38;;;;;;;;;;;21.70;44.20;;;;;;6107597;28;20054;-39
2021/12/17 09:28:43;;;;;;;;;;;21.90;43.90;;;;;;6139811;28;19975;-39
2021/12/17 09:31:45;;;;;;;;;;;21.30;43.30;;;;;;6104180;28;19928;-40
2021/12/17 09:34:47;;;;;;;;;;;21.30;43.70;;;;;;6115189;28;20833;-39
2021/12/17 09:37:48;;;;;;;;;;;21.90;43.90;;;;;;6098013;28;21287;-40
2021/12/17 09:40:50;;;;;;;;;;;21.90;43.60;;;;;;6105053;28;21102;-41
2021/12/17 09:43:52;;;;;;;;;;;21.60;43.90;;;;;;6126962;28;19928;-39
2021/12/17 09:46:57;;;;;;;;;;;22.00;43.90;;;;;;6119707;28;19929;-40
2021/12/17 09:49:58;;;;;;;;;;;21.90;43.90;;;;;;6113381;28;19929;-40
2021/12/17 09:53:00;;;;;;;;;;;22.20;44.10;;;;;;6113086;28;19957;-40
2021/12/17 09:56:03;;;;;;;;;;;21.50;43.70;;;;;;6098132;28;19935;-39
2021/12/17 09:59:04;;;;;;;;;;;21.70;43.60;;;;;;6095447;28;19936;-40
2021/12/17 10:02:06;;;;;;;;;;;21.90;43.30;;;;;;6105726;28;21003;-42
2021/12/17 10:05:11;;;;;;;;;;;21.90;43.40;;;;;;6111034;28;20013;-40
2021/12/17 10:08:13;;;;;;;;;;;21.70;43.50;;;;;;6093701;28;23406;-40
2021/12/17 10:11:16;;;;;;;;;;;21.50;43.40;;;;;;6102637;28;19928;-40
2021/12/17 10:14:18;;;;;;;;;;;22.00;43.80;;;;;;6105808;28;19929;-40
2021/12/17 10:17:20;;;;;;;;;;;21.70;43.10;;;;;;6105712;28;20122;-39
2021/12/17 10:20:23;;;;;;;;;;;21.30;43.20;;;;;;6108782;28;19940;-40
2021/12/17 10:23:25;;;;;;;;;;;22.10;43.60;;;;;;6080693;28;19968;-40
2021/12/17 10:26:28;;;;;;;;;;;21.60;43.40;;;;;;6093446;28;19935;-40
2021/12/17 10:29:29;;;;;;;;;;;21.60;43.50;;;;;;6110142;28;23280;-40
2021/12/17 10:32:30;;;;;;;;;;;21.70;43.60;;;;;;6092663;28;19929;-39
2021/12/17 10:35:32;;;;;;;;;;;22.40;43.90;;;;;;6127048;28;19970;-41
2021/12/17 10:38:34;;;;;;;;;;;22.00;43.70;;;;;;6102085;28;19928;-40
2021/12/17 10:41:44;;;;;;;;;;;22.40;44.40;;;;;;6118903;28;19928;-39
2021/12/17 10:44:58;;;;;;;;;;;22.40;43.80;;;;;;6137692;28;19928;-39
2021/12/17 10:48:20;;;;;;;;;;;22.10;43.60;;;;;;6077579;28;19928;-39
2021/12/17 10:51:31;;;;;;;;;;;22.10;43.60;;;;;;6126458;28;19936;-40
2021/12/17 10:54:33;;;;;;;;;;;21.90;42.70;;;;;;6130059;28;19928;-41
2021/12/17 10:57:35;;;;;;;;;;;22.20;43.60;;;;;;6131074;28;21863;-40
2021/12/17 11:00:41;;;;;;;;;;;22.30;43.70;;;;;;6127082;28;19934;-39
2021/12/17 11:03:44;;;;;;;;;;;22.20;43.50;;;;;;6122686;28;19928;-41
2021/12/17 11:06:48;;;;;;;;;;;21.80;43.30;;;;;;6101576;28;19928;-40
2021/12/17 11:09:50;;;;;;;;;;;22.10;43.40;;;;;;6090514;28;19948;-41
2021/12/17 11:12:52;;;;;;;;;;;22.00;43.30;;;;;;6106400;28;21123;-40
2021/12/17 11:15:54;;;;;;;;;;;22.20;43.50;;;;;;6132798;28;19959;-41
2021/12/17 11:18:56;;;;;;;;;;;22.60;43.70;;;;;;6129992;28;20213;-40
2021/12/17 11:21:58;;;;;;;;;;;21.70;43.20;;;;;;6138353;28;19928;-39
2021/12/17 11:25:00;;;;;;;;;;;21.70;43.10;;;;;;6149765;28;19931;-40
2021/12/17 11:28:04;;;;;;;;;;;21.90;43.10;;;;;;6144434;28;19928;-40
2021/12/17 11:31:06;;;;;;;;;;;21.80;43.20;;;;;;6145860;28;19936;-41
2021/12/17 11:34:07;;;;;;;;;;;22.40;43.50;;;;;;6150590;28;19977;-40
2021/12/17 11:37:09;;;;;;;;;;;22.30;43.40;;;;;;6155174;28;20014;-40
2021/12/17 11:40:17;;;;;;;;;;;22.10;43.40;;;;;;6150917;28;19928;-41
2021/12/17 11:43:29;;;;;;;;;;;22.10;43.20;;;;;;6164910;28;21301;-40
2021/12/17 11:46:31;;;;;;;;;;;22.00;43.20;;;;;;6163820;28;19928;-40
2021/12/17 11:49:36;;;;;;;;;;;21.90;43.20;;;;;;6159640;28;19935;-40
2021/12/17 11:52:39;;;;;;;;;;;22.20;43.30;;;;;;6166519;28;19928;-40
2021/12/17 11:55:40;;;;;;;;;;;21.90;43.20;;;;;;6170466;28;20046;-40
2021/12/17 11:58:43;;;;;;;;;;;21.90;43.10;;;;;;6171464;28;23001;-40
2021/12/17 12:01:55;;;;;;;;;;;22.60;43.50;;;;;;6141168;28;19968;-40
2021/12/17 12:04:57;;;;;;;;;;;22.60;43.40;;;;;;6158764;28;20973;-40
2021/12/17 12:08:23;;;;;;;;;;;22.20;43.30;;;;;;6172760;28;20048;-40
2021/12/17 12:11:26;;;;;;;;;;;21.70;43.00;;;;;;6152312;28;21772;-40
2021/12/17 12:14:30;;;;;;;;;;;21.90;43.10;;;;;;6180292;28;20014;-40
2021/12/17 12:17:47;;;;;;;;;;;22.20;43.20;;;;;;6187340;28;19967;-39
2021/12/17 12:20:58;;;;;;;;;;;21.90;43.00;;;;;;6177614;28;19928;-40
2021/12/17 12:24:09;;;;;;;;;;;21.80;42.90;;;;;;6158400;28;19929;-40
2021/12/17 12:27:26;;;;;;;;;;;22.10;43.10;;;;;;6168167;28;19982;-40
2021/12/17 12:30:36;;;;;;;;;;;22.40;43.20;;;;;;6168607;28;21299;-40
2021/12/17 12:34:02;;;;;;;;;;;21.80;42.70;;;;;;6170554;28;21300;-39
2021/12/17 12:37:08;;;;;;;;;;;22.00;42.90;;;;;;6152667;28;20077;-40
2021/12/17 12:40:16;;;;;;;;;;;22.50;43.30;;;;;;6169864;28;19963;-40
2021/12/17 12:43:25;;;;;;;;;;;22.10;43.10;;;;;;6150801;28;19935;-40
2021/12/17 12:46:41;;;;;;;;;;;22.00;42.50;;;;;;6130454;28;19929;-40
2021/12/17 12:49:45;;;;;;;;;;;22.10;43.10;;;;;;6131505;28;19935;-40
2021/12/17 12:52:47;;;;;;;;;;;22.30;43.10;;;;;;6142676;28;19932;-40
2021/12/17 12:55:49;;;;;;;;;;;22.40;43.20;;;;;;6151341;28;21738;-40
2021/12/17 12:58:53;;;;;;;;;;;22.20;43.10;;;;;;6139230;28;19928;-39
2021/12/17 13:01:54;;;;;;;;;;;22.40;43.30;;;;;;6144621;28;19928;-40
2021/12/17 13:04:57;;;;;;;;;;;22.10;43.10;;;;;;6134857;28;22885;-39
2021/12/17 13:08:00;;;;;;;;;;;22.30;43.20;;;;;;6129830;28;22320;-41
2021/12/17 13:11:03;;;;;;;;;;;22.10;42.90;;;;;;6116592;28;22372;-41
2021/12/17 13:14:09;;;;;;;;;;;22.40;43.00;;;;;;6143884;28;19928;-40
2021/12/17 13:17:18;;;;;;;;;;;23.00;43.30;;;;;;6135152;28;21018;-39
2021/12/17 13:20:43;;;;;;;;;;;22.50;43.00;;;;;;6115012;28;19932;-39
2021/12/17 13:23:50;;;;;;;;;;;22.40;42.90;;;;;;6126157;28;19935;-40
2021/12/17 13:26:52;;;;;;;;;;;22.30;43.10;;;;;;6114472;28;19936;-39
2021/12/17 13:29:57;;;;;;;;;;;22.60;43.20;;;;;;6106102;28;19928;-39
2021/12/17 13:33:03;;;;;;;;;;;22.40;43.00;;;;;;6088213;28;19935;-39
2021/12/17 13:36:12;;;;;;;;;;;22.10;42.90;;;;;;6117655;28;19928;-57
2021/12/17 13:39:13;;;;;;;;;;;22.30;42.90;;;;;;6119874;28;20286;-40
2021/12/17 13:42:17;;;;;;;;;;;22.70;43.10;;;;;;6117029;28;21925;-39
2021/12/17 13:45:20;;;;;;;;;;;22.60;43.00;;;;;;6098609;28;21019;-40
2021/12/17 13:48:22;;;;;;;;;;;22.20;42.80;;;;;;6119218;28;20071;-39
2021/12/17 13:51:26;;;;;;;;;;;22.50;43.10;;;;;;6114380;28;21925;-40
2021/12/17 13:54:27;;;;;;;;;;;22.80;43.20;;;;;;6097798;28;19928;-39
2021/12/17 13:57:30;;;;;;;;;;;22.40;43.00;;;;;;6087848;28;20773;-39
2021/12/17 14:00:33;;;;;;;;;;;22.60;42.50;;;;;;6075350;28;20891;-40
2021/12/17 14:03:38;;;;;;;;;;;22.80;43.00;;;;;;6108529;28;19936;-40
2021/12/17 14:06:51;;;;;;;;;;;22.70;43.20;;;;;;6112448;28;19928;-39
2021/12/17 14:09:56;;;;;;;;;;;22.60;43.00;;;;;;6087414;28;19928;-40
2021/12/17 14:12:57;;;;;;;;;;;22.30;42.80;;;;;;6115046;28;20005;-39
2021/12/17 14:16:27;;;;;;;;;;;22.60;43.10;;;;;;6085847;28;21025;-40
2021/12/17 14:19:36;;;;;;;;;;;22.80;43.00;;;;;;6093262;28;22767;-39
2021/12/17 14:22:39;;;;;;;;;;;22.40;42.80;;;;;;6094218;28;20051;-40
2021/12/17 14:25:42;;;;;;;;;;;22.10;42.70;;;;;;6094175;28;19936;-40
2021/12/17 14:28:43;;;;;;;;;;;22.60;42.90;;;;;;6104704;28;21013;-40
2021/12/17 14:31:44;;;;;;;;;;;22.70;43.20;;;;;;6094498;28;20357;-39
2021/12/17 14:34:46;;;;;;;;;;;22.60;43.10;;;;;;6107309;28;19928;-39
2021/12/17 14:37:49;;;;;;;;;;;22.70;42.90;;;;;;6117661;28;21904;-39
2021/12/17 14:40:55;;;;;;;;;;;22.60;43.00;;;;;;6104178;28;19928;-39
2021/12/17 14:44:00;;;;;;;;;;;22.70;43.00;;;;;;6109948;28;19932;-39
2021/12/17 14:47:14;;;;;;;;;;;22.50;42.90;;;;;;6114585;28;19951;-38
2021/12/17 15:00:31;;;;;;;;;;;22.60;42.50;;;;;;6098034;28;19929;-40
2021/12/17 15:03:40;;;;;;;;;;;22.20;42.80;;;;;;6097331;28;20005;-41
2021/12/17 15:06:42;;;;;;;;;;;22.30;43.20;;;;;;6132075;28;19935;-41
2021/12/17 15:09:46;;;;;;;;;;;22.70;42.90;;;;;;6123074;28;19936;-39
2021/12/17 15:13:06;;;;;;;;;;;22.40;42.90;;;;;;6115194;28;21047;-39
2021/12/17 15:16:08;;;;;;;;;;;22.50;43.20;;;;;;6101314;28;20046;-40
2021/12/17 15:19:09;;;;;;;;;;;22.50;43.20;;;;;;6108273;28;21542;-38
2021/12/17 15:22:11;;;;;;;;;;;22.80;43.30;;;;;;6078456;28;20035;-39
2021/12/17 15:25:14;;;;;;;;;;;22.70;43.60;;;;;;6102810;28;19928;-39
2021/12/17 15:28:16;;;;;;;;;;;22.80;43.00;;;;;;6114816;28;21349;-38
2021/12/17 15:31:18;;;;;;;;;;;22.80;43.20;;;;;;6091870;28;21714;-39
2021/12/17 15:34:19;;;;;;;;;;;22.80;43.30;;;;;;6119009;28;20041;-39
2021/12/17 15:37:21;;;;;;;;;;;22.60;43.40;;;;;;6136887;28;19936;-39
2021/12/17 15:40:24;;;;;;;;;;;22.90;43.30;;;;;;6145433;28;19935;-39
2021/12/17 15:43:25;;;;;;;;;;;23.10;43.40;;;;;;6126345;28;20059;-58
2021/12/17 15:46:27;;;;;;;;;;;22.60;43.20;;;;;;6129295;28;20068;-38
2021/12/17 15:49:28;;;;;;;;;;;22.20;43.10;;;;;;6116404;28;19928;-40
2021/12/17 15:52:30;;;;;;;;;;;22.30;43.20;;;;;;6141360;28;19932;-38
2021/12/17 15:55:33;;;;;;;;;;;22.70;43.20;;;;;;6147861;28;20562;-40
2021/12/17 15:58:34;;;;;;;;;;;22.50;43.00;;;;;;6143134;28;19928;-39
2021/12/17 16:01:36;;;;;;;;;;;22.50;43.00;;;;;;6123425;28;20040;-39
2021/12/17 16:04:41;;;;;;;;;;;22.70;43.30;;;;;;6124282;28;19928;-39
2021/12/17 16:07:44;;;;;;;;;;;22.80;43.30;;;;;;6128128;28;21318;-39
2021/12/17 16:23:49;;;;;;;;;;;22.60;42.90;;;;;;6170040;28;19928;-39
2021/12/17 16:26:51;;;;;;;;;;;22.40;42.80;;;;;;6168250;28;22939;-39
2021/12/17 16:29:54;;;;;;;;;;;22.70;43.10;;;;;;6185499;28;19928;-41
2021/12/17 16:32:55;;;;;;;;;;;23.00;42.80;;;;;;6174039;28;19932;-38
2021/12/17 16:36:00;;;;;;;;;;;22.50;43.00;;;;;;6176438;28;19954;-39
2021/12/17 16:39:02;;;;;;;;;;;22.80;43.10;;;;;;6177070;28;19929;-39
2021/12/17 16:42:05;;;;;;;;;;;22.50;42.90;;;;;;6157268;28;19971;-39
2021/12/17 16:45:22;;;;;;;;;;;22.30;42.90;;;;;;6180081;28;19997;-39
2021/12/17 16:48:26;;;;;;;;;;;22.60;43.00;;;;;;6199965;28;19928;-40
2021/12/17 16:51:27;;;;;;;;;;;22.40;43.50;;;;;;6188928;28;21008;-39
2021/12/17 16:54:29;;;;;;;;;;;22.30;42.80;;;;;;6178565;28;19928;-40
2021/12/17 16:57:32;;;;;;;;;;;22.30;43.00;;;;;;6180993;28;19928;-39
2021/12/17 17:00:33;;;;;;;;;;;22.60;43.20;;;;;;6192036;28;19968;-39
2021/12/17 17:03:35;;;;;;;;;;;22.40;43.30;;;;;;6190046;28;19935;-39
2021/12/17 17:06:40;;;;;;;;;;;22.10;42.90;;;;;;6171068;28;21754;-40
2021/12/17 17:09:42;;;;;;;;;;;22.90;43.30;;;;;;6177410;28;19928;-40
2021/12/17 17:12:48;;;;;;;;;;;22.40;43.20;;;;;;6188664;28;19979;-39
2021/12/17 17:15:50;;;;;;;;;;;22.30;43.20;;;;;;6210276;28;19973;-39
2021/12/17 17:18:53;;;;;;;;;;;22.20;43.10;;;;;;6206312;28;20058;-39
2021/12/17 17:21:56;;;;;;;;;;;22.10;43.10;;;;;;6190583;28;19932;-38
2021/12/17 17:24:57;;;;;;;;;;;22.30;43.10;;;;;;6204967;28;20152;-39
2021/12/17 17:27:59;;;;;;;;;;;22.20;43.20;;;;;;6189767;28;19928;-39
2021/12/17 17:31:04;;;;;;;;;;;22.40;43.30;;;;;;6205778;28;19928;-38
2021/12/17 17:34:08;;;;;;;;;;;22.80;43.60;;;;;;6218595;28;19928;-38
2021/12/17 17:37:12;;;;;;;;;;;22.60;43.40;;;;;;6218651;28;19932;-39
2021/12/17 17:40:14;;;;;;;;;;;22.80;43.60;;;;;;6223181;28;19979;-39
2021/12/17 17:43:16;;;;;;;;;;;22.30;43.30;;;;;;6204995;28;19928;-39
2021/12/17 17:46:18;;;;;;;;;;;22.20;43.30;;;;;;6220467;28;20044;-39
2021/12/17 17:49:19;;;;;;;;;;;22.40;43.30;;;;;;6228285;28;19928;-40
2021/12/17 17:52:21;;;;;;;;;;;22.20;43.30;;;;;;6227533;28;19928;-39
2021/12/17 17:55:22;;;;;;;;;;;22.20;43.10;;;;;;6208830;28;19928;-39
2021/12/17 17:58:24;;;;;;;;;;;22.60;43.50;;;;;;6223781;28;19928;-39
2021/12/17 18:01:25;;;;;;;;;;;22.50;43.40;;;;;;6221609;28;19928;-40
2021/12/17 18:04:27;;;;;;;;;;;22.80;43.70;;;;;;6223969;28;20869;-39
2021/12/17 18:07:29;;;;;;;;;;;22.30;43.30;;;;;;6223545;28;19998;-39
2021/12/17 18:10:30;;;;;;;;;;;22.10;43.00;;;;;;6223231;28;19933;-39
2021/12/17 18:13:33;;;;;;;;;;;22.00;43.10;;;;;;6232605;28;20295;-40
2021/12/17 18:16:35;;;;;;;;;;;22.20;43.30;;;;;;6231413;28;20031;-40
2021/12/17 18:19:37;;;;;;;;;;;22.40;43.40;;;;;;6239635;28;20047;-39
2021/12/17 18:22:38;;;;;;;;;;;22.10;43.60;;;;;;6238521;28;19929;-39
2021/12/17 18:25:40;;;;;;;;;;;22.10;43.50;;;;;;6237527;28;20758;-40
2021/12/17 18:28:42;;;;;;;;;;;22.00;43.20;;;;;;6242501;28;20408;-40
2021/12/17 18:31:44;;;;;;;;;;;22.30;43.60;;;;;;6215696;28;20628;-39
2021/12/17 18:34:45;;;;;;;;;;;22.10;43.50;;;;;;6221698;28;19929;-39
2021/12/17 18:37:47;;;;;;;;;;;22.20;43.80;;;;;;6212551;28;20825;-39
2021/12/17 18:40:57;;;;;;;;;;;22.30;43.60;;;;;;6216356;28;19972;-39
2021/12/17 18:44:05;;;;;;;;;;;21.70;43.50;;;;;;6216365;28;19928;-39
2021/12/17 18:47:07;;;;;;;;;;;21.80;43.60;;;;;;6212135;28;20312;-41
2021/12/17 18:50:08;;;;;;;;;;;22.00;43.70;;;;;;6214171;28;19956;-39
2021/12/17 18:53:10;;;;;;;;;;;21.90;43.80;;;;;;6219887;28;19928;-39
2021/12/17 18:56:12;;;;;;;;;;;22.30;43.90;;;;;;6199211;28;20139;-39
2021/12/17 18:59:14;;;;;;;;;;;21.90;43.90;;;;;;6216177;28;20463;-39
2021/12/17 19:02:15;;;;;;;;;;;22.00;44.00;;;;;;6227514;28;20577;-39
2021/12/17 19:05:16;;;;;;;;;;;21.70;43.90;;;;;;6229336;28;20063;-39
2021/12/17 19:08:19;;;;;;;;;;;21.80;43.90;;;;;;6235972;28;20913;-40
2021/12/17 19:11:21;;;;;;;;;;;22.20;44.10;;;;;;6234635;28;19930;-39
2021/12/17 19:14:27;;;;;;;;;;;21.90;43.90;;;;;;6239013;28;19924;-39
2021/12/17 19:17:30;;;;;;;;;;;21.80;44.00;;;;;;6240865;28;20383;-39
2021/12/17 19:20:39;;;;;;;;;;;22.00;44.10;;;;;;6238154;28;19964;-39
2021/12/17 19:23:40;;;;;;;;;;;22.20;44.30;;;;;;6241936;28;20013;-39
2021/12/17 19:26:42;;;;;;;;;;;21.60;43.90;;;;;;6233249;28;20054;-39
2021/12/17 19:29:44;;;;;;;;;;;22.10;44.30;;;;;;6249592;28;19931;-39
2021/12/17 19:32:45;;;;;;;;;;;22.10;44.30;;;;;;6250364;28;19959;-41
2021/12/17 19:35:47;;;;;;;;;;;21.70;44.10;;;;;;6241764;28;20750;-40
2021/12/17 19:38:48;;;;;;;;;;;21.80;44.20;;;;;;6249517;28;20713;-39
2021/12/17 19:41:50;;;;;;;;;;;22.00;44.30;;;;;;6251846;28;20678;-41
2021/12/17 19:44:54;;;;;;;;;;;21.90;44.30;;;;;;6255554;28;20960;-39
2021/12/17 19:48:10;;;;;;;;;;;21.60;44.10;;;;;;6256537;28;20047;-39
2021/12/17 19:51:11;;;;;;;;;;;21.60;44.00;;;;;;6258257;28;19991;-40
2021/12/17 19:54:13;;;;;;;;;;;21.50;44.20;;;;;;6258863;28;19924;-40
2021/12/17 19:57:14;;;;;;;;;;;21.90;44.40;;;;;;6256210;28;19971;-41
2021/12/17 20:00:16;;;;;;;;;;;21.50;44.30;;;;;;6254534;28;20871;-39
2021/12/17 20:03:18;;;;;;;;;;;22.20;45.00;;;;;;6255899;28;20046;-39
2021/12/17 20:06:20;;;;;;;;;;;21.40;44.00;;;;;;6264599;28;20105;-40
2021/12/17 20:09:22;;;;;;;;;;;21.50;44.20;;;;;;6251489;28;19924;-40
2021/12/17 20:12:23;;;;;;;;;;;22.10;44.70;;;;;;6249088;28;19928;-39
2021/12/17 20:15:25;;;;;;;;;;;21.70;44.40;;;;;;6253608;28;19974;-39
2021/12/17 20:18:27;;;;;;;;;;;21.50;44.10;;;;;;6236397;28;20426;-42
2021/12/17 20:21:28;;;;;;;;;;;21.40;43.90;;;;;;6235276;28;20101;-41
2021/12/17 20:24:34;;;;;;;;;;;21.60;44.30;;;;;;6251996;28;19924;-39
2021/12/17 20:27:36;;;;;;;;;;;21.60;44.30;;;;;;6255218;28;19929;-40